Time;durP1;ratioP1;P1;durP2;ratioP2;P2;SDS_P1;SDS_P2;PMS_P1;PMS_P2;Temp;Humidity;BMP_temperature;BMP_pressure;BME280_temperature;BME280_humidity;BME280_pressure;Samples;Min_cycle;Max_cycle;Signal;HPM_P1;HPM_P2
2023/12/26 00:01:12;;;;;;;1.17;1.17;;;;;;;-3.47;100.00;96079.16;4769111;30;20063;-79
2023/12/26 00:03:40;;;;;;;1.10;1.10;;;;;;;-3.45;100.00;96078.94;4768857;30;20054;-79
2023/12/26 00:06:08;;;;;;;1.23;1.13;;;;;;;-3.52;100.00;96074.59;4769149;30;20061;-79
2023/12/26 00:08:35;;;;;;;1.30;1.20;;;;;;;-3.43;100.00;96074.25;4768735;30;20507;-79
2023/12/26 00:11:02;;;;;;;1.05;1.05;;;;;;;-3.38;100.00;96067.25;4772721;29;20051;-78
2023/12/26 00:13:30;;;;;;;0.95;0.95;;;;;;;-3.31;100.00;96061.88;4800574;29;20115;-78
2023/12/26 00:15:57;;;;;;;1.27;1.20;;;;;;;-3.28;100.00;96067.50;4800785;29;20478;-78
2023/12/26 00:18:24;;;;;;;1.23;1.20;;;;;;;-3.28;100.00;96056.94;4786946;29;20059;-80
2023/12/26 00:20:53;;;;;;;1.10;1.10;;;;;;;-3.29;100.00;96070.38;4786848;29;20059;-79
2023/12/26 00:23:20;;;;;;;1.00;1.00;;;;;;;-3.30;100.00;96066.13;4787451;29;20052;-79
2023/12/26 00:25:48;;;;;;;1.10;1.10;;;;;;;-3.36;100.00;96064.41;4797849;29;20047;-80
2023/12/26 00:28:19;;;;;;;1.13;1.13;;;;;;;-3.30;100.00;96055.56;4768863;30;20120;-78
2023/12/26 00:30:46;;;;;;;1.10;1.10;;;;;;;-3.31;100.00;96061.88;4782456;30;20392;-79
2023/12/26 00:33:19;;;;;;;1.10;1.10;;;;;;;-3.31;100.00;96067.16;4768931;30;20132;-77
2023/12/26 00:35:46;;;;;;;1.00;1.00;;;;;;;-3.31;100.00;96060.03;4782423;30;20120;-79
2023/12/26 00:38:14;;;;;;;1.10;1.10;;;;;;;-3.30;100.00;96061.63;4768560;30;20052;-79
2023/12/26 00:40:41;;;;;;;1.23;1.20;;;;;;;-3.31;100.00;96053.97;4782315;30;20062;-79
2023/12/26 00:43:08;;;;;;;1.02;1.02;;;;;;;-3.31;100.00;96051.34;4768585;30;20056;-79
2023/12/26 00:45:35;;;;;;;0.93;0.93;;;;;;;-3.30;100.00;96052.94;4768283;30;20075;-79
2023/12/26 00:48:03;;;;;;;1.10;1.10;;;;;;;-3.26;100.00;96054.09;4768587;30;20070;-80
2023/12/26 00:50:32;;;;;;;1.10;1.10;;;;;;;-3.29;100.00;96044.00;4768310;30;20048;-78
2023/12/26 00:53:00;;;;;;;1.30;1.20;;;;;;;-3.31;100.00;96048.69;4768739;30;20059;-79
2023/12/26 00:55:27;;;;;;;1.20;1.20;;;;;;;-3.30;100.00;96052.94;4768537;30;20698;-79
2023/12/26 00:57:56;;;;;;;1.10;1.10;;;;;;;-3.29;100.00;96049.28;4768224;30;20117;-79
2023/12/26 01:00:24;;;;;;;0.98;0.98;;;;;;;-3.32;100.00;96050.53;4766490;30;20147;-79
2023/12/26 01:02:51;;;;;;;0.93;0.93;;;;;;;-3.30;100.00;96050.28;4781882;30;20150;-79
2023/12/26 01:05:21;;;;;;;1.00;1.00;;;;;;;-3.32;100.00;96042.63;4768488;30;20056;-80
2023/12/26 01:07:49;;;;;;;1.10;1.10;;;;;;;-3.31;100.00;96044.22;4775321;30;20150;-79
2023/12/26 01:10:18;;;;;;;1.15;1.15;;;;;;;-3.24;100.00;96049.41;4800106;29;20052;-79
2023/12/26 01:12:45;;;;;;;1.10;1.10;;;;;;;-3.23;100.00;96042.28;4785931;29;20086;-79
2023/12/26 01:15:13;;;;;;;1.00;1.00;;;;;;;-3.27;100.00;96049.84;4786214;29;20164;-79
2023/12/26 01:17:40;;;;;;;1.00;1.00;;;;;;;-3.24;100.00;96038.00;4799828;29;20055;-79
2023/12/26 01:20:08;;;;;;;1.27;1.20;;;;;;;-3.25;100.00;96037.22;4785917;30;20059;-79
2023/12/26 01:22:36;;;;;;;1.00;1.00;;;;;;;-3.25;100.00;96031.16;4799354;29;20051;-79
2023/12/26 01:25:05;;;;;;;1.30;1.20;;;;;;;-3.22;100.00;96028.84;4799731;29;20059;-80
2023/12/26 01:27:33;;;;;;;1.00;1.00;;;;;;;-3.20;100.00;96042.59;4784042;29;20063;-79
2023/12/26 01:30:02;;;;;;;1.10;1.10;;;;;;;-3.16;100.00;96051.69;4781640;30;20055;-79
2023/12/26 01:32:33;;;;;;;1.00;1.00;;;;;;;-3.16;100.00;96037.69;4780806;29;20071;-79
2023/12/26 01:35:01;;;;;;;1.30;1.20;;;;;;;-3.15;100.00;96039.28;4781648;30;20064;-79
2023/12/26 01:37:32;;;;;;;1.10;1.10;;;;;;;-3.15;100.00;96039.28;4767681;30;20066;-79
2023/12/26 01:39:59;;;;;;;0.90;0.90;;;;;;;-3.16;100.00;96041.13;4768158;30;20060;-79
2023/12/26 01:42:29;;;;;;;1.08;1.08;;;;;;;-3.19;100.00;96041.59;4781229;29;20101;-78
2023/12/26 01:44:56;;;;;;;1.05;1.05;;;;;;;-3.23;100.00;96035.16;4767815;30;20105;-79
2023/12/26 01:47:25;;;;;;;1.00;1.00;;;;;;;-3.19;100.00;96033.69;4767731;30;20063;-80
2023/12/26 01:49:53;;;;;;;1.10;1.10;;;;;;;-3.15;100.00;96029.53;4767194;30;20064;-78
2023/12/26 01:52:20;;;;;;;1.10;1.10;;;;;;;-3.22;100.00;96026.19;4766010;30;20078;-78
2023/12/26 01:54:48;;;;;;;1.00;1.00;;;;;;;-3.15;100.00;96028.75;4767193;30;20578;-79
2023/12/26 01:57:15;;;;;;;1.00;1.00;;;;;;;-3.14;100.00;96019.78;4780581;29;20059;-78
2023/12/26 01:59:43;;;;;;;1.05;1.05;;;;;;;-3.09;100.00;96028.63;4781020;30;20056;-78
2023/12/26 02:02:11;;;;;;;1.15;1.10;;;;;;;-3.07;100.00;96031.03;4767272;30;20056;-79
2023/12/26 02:04:39;;;;;;;1.30;1.20;;;;;;;-3.07;100.00;96031.03;4777557;30;20058;-78
2023/12/26 02:07:07;;;;;;;1.10;1.10;;;;;;;-3.07;100.00;96029.19;4784786;29;20055;-78
2023/12/26 02:09:37;;;;;;;0.90;0.90;;;;;;;-3.13;100.00;96027.47;4784444;29;20059;-78
2023/12/26 02:12:04;;;;;;;1.15;1.15;;;;;;;-3.10;100.00;96037.56;4783484;29;20833;-78
2023/12/26 02:14:33;;;;;;;1.00;1.00;;;;;;;-3.08;100.00;96032.84;4798332;29;20058;-78
2023/12/26 02:17:03;;;;;;;1.20;1.20;;;;;;;-3.07;100.00;96042.38;4784380;29;20071;-79
2023/12/26 02:19:31;;;;;;;1.10;1.10;;;;;;;-3.02;100.00;96036.41;4783340;29;20138;-78
2023/12/26 02:21:59;;;;;;;0.95;0.95;;;;;;;-3.06;100.00;96041.34;4798033;29;20051;-78
2023/12/26 02:24:27;;;;;;;1.15;1.15;;;;;;;-3.05;100.00;96045.59;4798357;29;20074;-79
2023/12/26 02:26:55;;;;;;;1.02;1.02;;;;;;;-2.99;100.00;96043.06;4773625;29;20431;-79
2023/12/26 02:29:24;;;;;;;1.00;1.00;;;;;;;-2.97;100.00;96046.28;4766478;30;20070;-79
2023/12/26 02:31:54;;;;;;;1.10;1.10;;;;;;;-2.99;100.00;96043.06;4764757;30;20055;-79
2023/12/26 02:34:22;;;;;;;1.05;1.05;;;;;;;-2.89;100.00;96048.56;4765399;30;20051;-80
2023/12/26 02:36:50;;;;;;;0.98;0.98;;;;;;;-2.83;100.00;96055.56;4765089;30;20048;-79
2023/12/26 02:39:17;;;;;;;1.00;1.00;;;;;;;-2.86;100.00;96054.19;4766445;30;20056;-78
2023/12/26 02:41:45;;;;;;;1.10;1.10;;;;;;;-2.84;100.00;96053.94;4766845;30;20501;-79
2023/12/26 02:44:12;;;;;;;0.93;0.93;;;;;;;-2.81;100.00;96050.03;4768123;30;20059;-78
2023/12/26 02:46:39;;;;;;;1.08;1.08;;;;;;;-2.82;100.00;96051.88;4783072;30;20051;-78
2023/12/26 02:49:07;;;;;;;1.10;1.10;;;;;;;-2.85;100.00;96053.16;4784290;29;20065;-78
2023/12/26 02:51:35;;;;;;;1.27;1.20;;;;;;;-2.83;100.00;96055.56;4784133;29;20084;-79
2023/12/26 02:54:02;;;;;;;1.05;1.05;;;;;;;-2.82;100.00;96051.88;4784356;29;20051;-79
2023/12/26 02:56:30;;;;;;;1.10;1.10;;;;;;;-2.77;100.00;96056.47;4784709;29;20054;-78
2023/12/26 02:58:57;;;;;;;1.10;1.10;;;;;;;-2.80;100.00;96047.19;4798908;29;20388;-79
2023/12/26 03:01:24;;;;;;;1.10;1.10;;;;;;;-2.81;100.00;96052.69;4783877;29;20618;-77
2023/12/26 03:03:53;;;;;;;1.10;1.10;;;;;;;-2.78;100.00;96054.88;4797849;29;20058;-78
2023/12/26 03:06:23;;;;;;;1.10;1.10;;;;;;;-2.77;100.00;96057.25;4797772;29;20047;-79
2023/12/26 03:08:50;;;;;;;1.10;1.10;;;;;;;-2.71;100.00;96061.63;4783181;30;20082;-78
2023/12/26 03:11:18;;;;;;;0.80;0.80;;;;;;;-2.71;100.00;96051.06;4783954;29;20108;-78
2023/12/26 03:13:45;;;;;;;1.00;1.00;;;;;;;-2.71;100.00;96053.72;4783705;29;20059;-80
2023/12/26 03:16:12;;;;;;;1.25;1.17;;;;;;;-2.71;100.00;96064.28;4783938;29;20063;-79
2023/12/26 03:18:39;;;;;;;0.98;0.98;;;;;;;-2.66;100.00;96058.28;4767083;30;20060;-79
2023/12/26 03:21:07;;;;;;;0.90;0.90;;;;;;;-2.62;100.00;96059.44;4781469;29;20059;-79
2023/12/26 03:23:34;;;;;;;1.15;1.13;;;;;;;-2.60;100.00;96053.94;4783652;29;20066;-79
2023/12/26 03:26:03;;;;;;;1.10;1.10;;;;;;;-2.62;100.00;96054.94;4779332;29;20056;-78
2023/12/26 03:28:30;;;;;;;0.95;0.95;;;;;;;-2.66;100.00;96053.81;4765799;30;20086;-80
2023/12/26 03:30:57;;;;;;;1.10;1.10;;;;;;;-2.60;100.00;96065.28;4778992;30;20044;-79
2023/12/26 03:33:26;;;;;;;1.05;1.05;;;;;;;-2.63;100.00;96058.63;4765565;30;20074;-78
2023/12/26 03:35:53;;;;;;;1.00;1.00;;;;;;;-2.64;100.00;96051.72;4779307;30;20440;-78
2023/12/26 03:38:21;;;;;;;1.10;1.10;;;;;;;-2.62;100.00;96054.16;4765410;30;20535;-79
2023/12/26 03:40:48;;;;;;;1.10;1.10;;;;;;;-2.58;100.00;96057.09;4765539;30;20142;-79
2023/12/26 03:43:18;;;;;;;0.90;0.90;;;;;;;-2.54;100.00;96060.91;4779127;30;20090;-79
2023/12/26 03:45:46;;;;;;;1.00;1.00;;;;;;;-2.55;100.00;96054.03;4779258;30;20776;-79
2023/12/26 03:48:13;;;;;;;1.00;1.00;;;;;;;-2.59;100.00;96064.22;4765651;30;20062;-79
2023/12/26 03:50:41;;;;;;;1.00;1.00;;;;;;;-2.57;100.00;96064.00;4778689;30;20142;-79
2023/12/26 03:53:08;;;;;;;0.93;0.93;;;;;;;-2.53;100.00;96067.78;4765273;30;20542;-79
2023/12/26 03:55:36;;;;;;;1.00;1.00;;;;;;;-2.48;100.00;96067.88;4778779;30;20055;-80
2023/12/26 03:58:03;;;;;;;1.00;1.00;;;;;;;-2.44;100.00;96071.66;4783157;29;20580;-79
2023/12/26 04:00:30;;;;;;;0.98;0.98;;;;;;;-2.43;100.00;96073.25;4783149;30;20055;-79
2023/12/26 04:02:58;;;;;;;0.98;0.98;;;;;;;-2.44;100.00;96079.59;4747719;30;20056;-79
2023/12/26 04:05:26;;;;;;;1.13;1.10;;;;;;;-2.48;100.00;96070.53;4762816;30;20052;-79
2023/12/26 04:07:53;;;;;;;1.10;1.10;;;;;;;-2.46;100.00;96074.53;4762648;30;20149;-80
2023/12/26 04:10:21;;;;;;;1.00;1.00;;;;;;;-2.51;100.00;96077.06;4756707;30;20106;-79
2023/12/26 04:12:49;;;;;;;1.00;1.00;;;;;;;-2.46;100.00;96082.44;4714872;30;20056;-80
2023/12/26 04:15:17;;;;;;;0.88;0.88;;;;;;;-2.48;100.00;96083.72;4729973;30;20052;-83
2023/12/26 04:17:47;;;;;;;1.10;1.10;;;;;;;-2.47;100.00;96088.78;4743725;30;20111;-81
2023/12/26 04:20:17;;;;;;;1.10;1.10;;;;;;;-2.43;100.00;96084.66;4746279;30;20056;-80
2023/12/26 04:22:47;;;;;;;0.95;0.95;;;;;;;-2.38;100.00;96091.88;4747322;30;20052;-80
2023/12/26 04:25:17;;;;;;;1.00;1.00;;;;;;;-2.39;100.00;96082.34;4746260;30;20051;-80
2023/12/26 04:27:51;;;;;;;1.17;1.15;;;;;;;-2.42;100.00;96096.00;4747500;30;20059;-80
2023/12/26 04:30:19;;;;;;;1.00;1.00;;;;;;;-2.38;100.00;96101.63;4747539;30;20060;-80
2023/12/26 04:32:47;;;;;;;0.88;0.88;;;;;;;-2.34;100.00;96097.50;4747315;30;20055;-78
2023/12/26 04:35:14;;;;;;;1.02;1.02;;;;;;;-2.34;100.00;96100.13;4767873;30;20059;-79
2023/12/26 04:37:42;;;;;;;1.00;1.00;;;;;;;-2.34;100.00;96110.69;4778402;29;20139;-80
2023/12/26 04:40:10;;;;;;;1.15;1.10;;;;;;;-2.31;100.00;96107.59;4781788;29;20055;-82
2023/12/26 04:42:37;;;;;;;1.08;1.08;;;;;;;-2.31;100.00;96112.88;4771256;29;20058;-79
2023/12/26 04:45:05;;;;;;;1.30;1.20;;;;;;;-2.31;100.00;96107.59;4779650;30;20175;-78
2023/12/26 04:47:33;;;;;;;1.00;1.00;;;;;;;-2.27;100.00;96119.31;4780300;30;20113;-80
2023/12/26 04:50:00;;;;;;;1.00;1.00;;;;;;;-2.31;100.00;96118.16;4766651;30;20051;-79
2023/12/26 04:52:31;;;;;;;1.10;1.10;;;;;;;-2.29;100.00;96122.16;4766796;30;20053;-79
2023/12/26 04:54:58;;;;;;;1.30;1.20;;;;;;;-2.25;100.00;96120.69;4767257;30;20570;-79
2023/12/26 04:57:29;;;;;;;0.95;0.95;;;;;;;-2.20;100.00;96122.63;4781251;30;20102;-79
2023/12/26 04:59:57;;;;;;;1.02;1.02;;;;;;;-2.19;100.00;96126.84;4766776;30;20090;-79
2023/12/26 05:02:25;;;;;;;1.33;1.23;;;;;;;-2.19;100.00;96130.28;4796235;29;20120;-79
2023/12/26 05:04:52;;;;;;;1.05;1.05;;;;;;;-2.24;100.00;96124.91;4766073;30;20052;-79
2023/12/26 05:07:20;;;;;;;1.38;1.27;;;;;;;-2.17;100.00;96134.56;4766619;30;20055;-79
2023/12/26 05:09:48;;;;;;;1.10;1.10;;;;;;;-2.14;100.00;96136.72;4781076;29;20360;-79
2023/12/26 05:12:15;;;;;;;0.90;0.90;;;;;;;-2.13;100.00;96143.59;4786094;29;20070;-78
2023/12/26 05:14:44;;;;;;;1.15;1.10;;;;;;;-2.15;100.00;96138.56;4796272;29;20147;-79
2023/12/26 05:17:12;;;;;;;1.00;1.00;;;;;;;-2.11;100.00;96144.19;4765743;30;20061;-79
2023/12/26 05:19:40;;;;;;;1.10;1.10;;;;;;;-2.10;100.00;96146.59;4767513;30;20062;-79
2023/12/26 05:22:08;;;;;;;1.00;1.00;;;;;;;-2.08;100.00;96149.00;4767683;30;20064;-79
2023/12/26 05:24:35;;;;;;;1.10;1.10;;;;;;;-2.08;100.00;96160.38;4781111;30;20125;-78
2023/12/26 05:27:19;;;;;;;1.08;1.08;;;;;;;-2.06;100.00;96160.13;4765847;30;20830;-79
2023/12/26 05:29:48;;;;;;;1.00;1.00;;;;;;;-2.09;100.00;96155.34;4768624;30;20499;-78
2023/12/26 05:32:15;;;;;;;1.02;1.02;;;;;;;-2.04;100.00;96173.94;4781242;29;20058;-79
2023/12/26 05:34:44;;;;;;;1.10;1.10;;;;;;;-2.01;100.00;96170.81;4781073;29;20459;-79
2023/12/26 05:37:12;;;;;;;1.10;1.10;;;;;;;-2.00;100.00;96175.88;4767312;30;20055;-80
2023/12/26 05:39:43;;;;;;;1.00;1.00;;;;;;;-1.96;100.00;96176.19;4780695;30;20052;-80
2023/12/26 05:42:10;;;;;;;1.00;1.00;;;;;;;-1.84;100.00;96182.25;4767160;30;20060;-79
2023/12/26 05:44:39;;;;;;;1.00;1.00;;;;;;;-1.77;100.00;96180.28;4765511;30;20056;-79
2023/12/26 05:47:06;;;;;;;1.00;1.00;;;;;;;-1.73;100.00;96190.41;4780744;29;20673;-79
2023/12/26 05:49:35;;;;;;;1.30;1.20;;;;;;;-1.75;100.00;96190.63;4791519;29;20059;-79
2023/12/26 05:52:03;;;;;;;1.00;1.00;;;;;;;-1.72;100.00;96198.09;4798625;29;20054;-80
2023/12/26 05:54:30;;;;;;;1.00;1.00;;;;;;;-1.71;100.00;96188.31;4784854;29;20057;-78
2023/12/26 05:56:58;;;;;;;1.00;1.00;;;;;;;-1.64;100.00;96197.72;4785075;30;20059;-79
2023/12/26 05:59:25;;;;;;;1.02;1.02;;;;;;;-1.68;100.00;96204.50;4778504;29;20147;-78
2023/12/26 06:01:53;;;;;;;0.90;0.90;;;;;;;-1.60;100.00;96211.28;4780055;29;20152;-78
2023/12/26 06:04:20;;;;;;;1.00;1.00;;;;;;;-1.56;100.00;96212.41;4787739;29;20545;-79
2023/12/26 06:06:48;;;;;;;0.95;0.95;;;;;;;-1.48;100.00;96216.53;4787573;29;20055;-79
2023/12/26 06:09:16;;;;;;;1.00;1.00;;;;;;;-1.45;100.00;96222.13;4780345;29;20211;-80
2023/12/26 06:11:44;;;;;;;0.98;0.98;;;;;;;-1.37;100.00;96227.06;4785286;29;20055;-79
2023/12/26 06:14:11;;;;;;;1.20;1.20;;;;;;;-1.32;100.00;96229.81;4765109;30;20582;-79
2023/12/26 06:16:39;;;;;;;0.90;0.90;;;;;;;-1.37;100.00;96228.91;4765985;30;20142;-79
2023/12/26 06:19:06;;;;;;;0.95;0.95;;;;;;;-1.34;100.00;96239.81;4787549;29;20066;-79
2023/12/26 06:21:35;;;;;;;1.02;1.02;;;;;;;-1.33;100.00;96246.72;4787432;29;20079;-79
2023/12/26 06:24:03;;;;;;;1.05;1.05;;;;;;;-1.31;100.00;96249.13;4784968;29;20059;-79
2023/12/26 06:26:31;;;;;;;1.08;1.08;;;;;;;-1.33;100.00;96249.34;4764737;30;20135;-78
2023/12/26 06:29:01;;;;;;;1.00;1.00;;;;;;;-1.35;100.00;96248.78;4787527;29;20067;-78
2023/12/26 06:31:28;;;;;;;1.00;1.00;;;;;;;-1.33;100.00;96245.91;4766196;30;20072;-79
2023/12/26 06:34:00;;;;;;;1.10;1.10;;;;;;;-1.29;100.00;96251.53;4787623;29;20051;-78
2023/12/26 06:36:30;;;;;;;1.00;1.00;;;;;;;-1.25;100.00;96264.06;4780879;29;20128;-79
2023/12/26 06:39:00;;;;;;;1.10;1.10;;;;;;;-1.20;100.00;96268.66;4781065;30;20537;-79
2023/12/26 06:41:28;;;;;;;1.10;1.10;;;;;;;-1.13;100.00;96271.97;4766818;30;20085;-80
2023/12/26 06:43:57;;;;;;;1.00;1.00;;;;;;;-1.14;100.00;96267.69;4765910;30;20063;-80
2023/12/26 06:46:25;;;;;;;0.90;0.90;;;;;;;-1.06;100.00;96274.44;4781102;30;20438;-78
2023/12/26 06:48:53;;;;;;;1.00;1.00;;;;;;;-1.02;100.00;96278.22;4797715;29;20078;-80
2023/12/26 06:51:21;;;;;;;1.00;1.00;;;;;;;-1.01;100.00;96279.81;4784252;29;20059;-78
2023/12/26 06:53:48;;;;;;;0.90;0.90;;;;;;;-1.04;100.00;96286.41;4767966;30;20523;-82
2023/12/26 06:56:17;;;;;;;1.00;1.00;;;;;;;-1.04;100.00;96288.25;4797880;29;20079;-78
2023/12/26 06:58:44;;;;;;;1.10;1.10;;;;;;;-0.99;100.00;96291.78;4777555;29;20058;-78
2023/12/26 07:01:13;;;;;;;1.10;1.10;;;;;;;-0.90;100.00;96297.53;4766100;30;20422;-79
2023/12/26 07:03:44;;;;;;;1.00;1.00;;;;;;;-0.84;100.00;96301.84;4779100;30;20067;-78
2023/12/26 07:06:14;;;;;;;0.98;0.98;;;;;;;-0.83;100.00;96297.38;4779911;30;20071;-78
2023/12/26 07:08:44;;;;;;;1.00;1.00;;;;;;;-0.77;100.00;96304.38;4762640;30;20134;-78
2023/12/26 07:11:11;;;;;;;1.10;1.10;;;;;;;-0.70;100.00;96307.66;4764166;30;20044;-79
2023/12/26 07:13:40;;;;;;;0.90;0.90;;;;;;;-0.64;100.00;96311.19;4764983;30;20056;-80
2023/12/26 07:16:07;;;;;;;1.00;1.00;;;;;;;-0.65;100.00;96313.06;4453389;29;9999857;-81
2023/12/26 07:18:35;;;;;;;1.20;1.20;;;;;;;-0.61;100.00;96314.16;4763596;30;20300;-80
2023/12/26 07:21:03;;;;;;;0.90;0.90;;;;;;;-0.61;100.00;96322.13;4762493;30;20080;-79
2023/12/26 07:23:34;;;;;;;1.00;1.00;;;;;;;-0.61;100.00;96327.41;4763241;30;20063;-78
2023/12/26 07:26:01;;;;;;;1.05;1.05;;;;;;;-0.64;100.00;96332.41;4785142;29;20125;-80
2023/12/26 07:28:29;;;;;;;1.00;1.00;;;;;;;-0.70;100.00;96339.47;4763135;30;20120;-79
2023/12/26 07:30:57;;;;;;;1.05;1.05;;;;;;;-0.69;100.00;96349.78;4763083;30;20263;-79
2023/12/26 07:33:25;;;;;;;0.90;0.90;;;;;;;-0.72;100.00;96344.97;4762628;30;20052;-79
2023/12/26 07:35:57;;;;;;;0.73;0.73;;;;;;;-0.73;100.00;96340.72;4774098;29;20056;-79
2023/12/26 07:38:25;;;;;;;1.05;1.05;;;;;;;-0.68;100.00;96353.28;4760805;30;20048;-79
2023/12/26 07:40:52;;;;;;;1.10;1.10;;;;;;;-0.64;100.00;96359.69;4763235;30;20075;-80
2023/12/26 07:43:22;;;;;;;1.10;1.10;;;;;;;-0.65;100.00;96366.03;4763792;30;20060;-79
2023/12/26 07:45:56;;;;;;;1.10;1.10;;;;;;;-0.59;100.00;96377.53;4775270;30;20047;-79
2023/12/26 07:48:25;;;;;;;1.00;1.00;;;;;;;-0.59;100.00;96378.31;4762568;30;20134;-80
2023/12/26 07:50:52;;;;;;;1.02;1.02;;;;;;;-0.55;100.00;96382.13;4762648;30;20126;-79
2023/12/26 07:53:24;;;;;;;1.10;1.10;;;;;;;-0.58;100.00;96385.25;4760968;30;20605;-79
2023/12/26 07:55:55;;;;;;;1.10;1.10;;;;;;;-0.61;100.00;96388.34;4747902;30;20048;-78
2023/12/26 07:58:22;;;;;;;1.00;1.00;;;;;;;-0.64;100.00;96388.81;4765871;30;20052;-80
2023/12/26 08:00:50;;;;;;;1.00;1.00;;;;;;;-0.64;100.00;96394.13;4766386;30;20044;-80
2023/12/26 08:03:17;;;;;;;0.90;0.90;;;;;;;-0.66;100.00;96399.69;4766570;30;20059;-80
2023/12/26 08:05:45;;;;;;;1.10;1.10;;;;;;;-0.65;100.00;96397.81;4766087;30;20052;-81
2023/12/26 08:08:14;;;;;;;0.85;0.85;;;;;;;-0.64;100.00;96411.88;4766616;30;20439;-80
2023/12/26 08:10:47;;;;;;;0.90;0.90;;;;;;;-0.63;100.00;96398.41;4766779;30;20060;-80
2023/12/26 08:13:17;;;;;;;1.00;1.00;;;;;;;-0.66;100.00;96417.38;4764697;30;20070;-79
2023/12/26 08:15:44;;;;;;;1.08;1.08;;;;;;;-0.69;100.00;96421.31;4765421;30;20097;-79
2023/12/26 08:18:12;;;;;;;1.00;1.00;;;;;;;-0.70;100.00;96429.50;4764789;30;20052;-80
2023/12/26 08:20:39;;;;;;;1.10;1.10;;;;;;;-0.71;100.00;96435.84;4765358;30;20154;-82
2023/12/26 08:23:10;;;;;;;1.00;1.00;;;;;;;-0.75;100.00;96432.06;4764851;30;20044;-79
2023/12/26 08:25:42;;;;;;;1.00;1.00;;;;;;;-0.69;100.00;96442.50;4766262;30;20143;-80
2023/12/26 08:28:12;;;;;;;1.00;1.00;;;;;;;-0.67;100.00;96447.56;4766632;30;20156;-79
2023/12/26 08:30:59;;;;;;;0.90;0.90;;;;;;;-0.58;100.00;96448.81;4767866;30;20181;-79
2023/12/26 08:33:31;;;;;;;1.10;1.10;;;;;;;-0.56;100.00;96446.72;4766542;30;20146;-79
2023/12/26 08:35:59;;;;;;;1.08;1.08;;;;;;;-0.51;100.00;96453.97;4766809;30;20059;-79
2023/12/26 08:38:27;;;;;;;1.10;1.10;;;;;;;-0.51;100.00;96451.31;4766515;30;20051;-79
2023/12/26 08:40:58;;;;;;;0.90;0.90;;;;;;;-0.46;100.00;96473.44;4766521;30;20056;-78
2023/12/26 08:43:28;;;;;;;1.00;1.00;;;;;;;-0.47;100.00;96463.88;4769775;30;20055;-79
2023/12/26 08:46:00;;;;;;;1.10;1.10;;;;;;;-0.48;100.00;96467.56;4769661;30;20062;-79
2023/12/26 08:48:30;;;;;;;1.00;1.00;;;;;;;-0.52;100.00;96468.25;4768771;30;20052;-79
2023/12/26 08:51:00;;;;;;;1.00;1.00;;;;;;;-0.57;100.00;96470.81;4769763;30;20147;-79
2023/12/26 08:53:27;;;;;;;1.00;1.00;;;;;;;-0.59;100.00;96473.69;4768389;30;20117;-79
2023/12/26 08:55:55;;;;;;;0.90;0.90;;;;;;;-0.58;100.00;96477.97;4769590;30;20059;-78
2023/12/26 08:58:27;;;;;;;0.90;0.90;;;;;;;-0.59;100.00;96488.78;4769717;30;20060;-79
2023/12/26 09:00:56;;;;;;;1.10;1.10;;;;;;;-0.62;100.00;96492.72;4754716;30;20052;-79
2023/12/26 09:03:27;;;;;;;0.90;0.90;;;;;;;-0.66;100.00;96492.38;4769811;30;20090;-78
2023/12/26 09:06:14;;;;;;;1.00;1.00;;;;;;;-0.64;100.00;96499.28;4768007;30;20067;-79
2023/12/26 09:08:41;;;;;;;1.20;1.20;;;;;;;-0.56;100.00;96510.31;4769617;30;20071;-78
2023/12/26 09:11:09;;;;;;;0.93;0.93;;;;;;;-0.54;100.00;96507.44;4768957;30;20070;-78
2023/12/26 09:13:37;;;;;;;1.00;1.00;;;;;;;-0.55;100.00;96517.22;4769306;30;20075;-80
2023/12/26 09:16:05;;;;;;;1.10;1.10;;;;;;;-0.53;100.00;96515.16;4767608;30;20408;-79
2023/12/26 09:18:32;;;;;;;1.00;1.00;;;;;;;-0.51;100.00;96522.84;4769299;30;20101;-78
2023/12/26 09:21:00;;;;;;;0.90;0.90;;;;;;;-0.49;100.00;96526.09;4767897;30;20079;-79
2023/12/26 09:23:28;;;;;;;0.95;0.95;;;;;;;-0.49;100.00;96532.19;4769593;30;20060;-79
2023/12/26 09:25:56;;;;;;;1.00;1.00;;;;;;;-0.45;100.00;96533.34;4767657;30;20446;-78
2023/12/26 09:28:23;;;;;;;1.00;1.00;;;;;;;-0.47;100.00;96539.91;4782283;30;20142;-79
2023/12/26 09:30:51;;;;;;;1.10;1.10;;;;;;;-0.50;100.00;96550.97;4768534;30;20052;-78
2023/12/26 09:33:22;;;;;;;1.00;1.00;;;;;;;-0.49;100.00;96568.47;4768780;30;20063;-79
2023/12/26 09:35:49;;;;;;;1.00;1.00;;;;;;;-0.51;100.00;96554.66;4768349;30;20056;-78
2023/12/26 09:38:17;;;;;;;1.00;1.00;;;;;;;-0.45;100.00;96565.13;4768604;30;20163;-80
2023/12/26 09:40:47;;;;;;;1.10;1.10;;;;;;;-0.50;100.00;96567.69;4768279;30;20785;-79
2023/12/26 09:43:14;;;;;;;0.82;0.82;;;;;;;-0.47;100.00;96591.06;4786925;29;20512;-79
2023/12/26 09:45:42;;;;;;;1.00;1.00;;;;;;;-0.49;100.00;96589.69;4786330;29;20058;-79
2023/12/26 09:48:11;;;;;;;0.90;0.90;;;;;;;-0.53;100.00;96594.66;4772296;29;20056;-79
2023/12/26 09:50:39;;;;;;;1.00;1.00;;;;;;;-0.51;100.00;96587.25;4768792;30;20131;-80
2023/12/26 09:53:09;;;;;;;1.10;1.10;;;;;;;-0.57;100.00;96579.44;4762064;30;20052;-79
2023/12/26 09:55:36;;;;;;;1.08;1.08;;;;;;;-0.60;100.00;96588.66;4763058;30;20736;-80
2023/12/26 09:58:04;;;;;;;1.00;1.00;;;;;;;-0.66;100.00;96608.94;4762884;30;20120;-80
2023/12/26 10:00:35;;;;;;;1.10;1.10;;;;;;;-0.68;100.00;96623.47;4763393;30;20089;-79
2023/12/26 10:03:03;;;;;;;0.90;0.90;;;;;;;-0.67;100.00;96614.47;4760845;30;20043;-79
2023/12/26 10:05:31;;;;;;;1.08;1.08;;;;;;;-0.67;100.00;96623.22;4776212;30;20054;-78
2023/12/26 10:07:58;;;;;;;0.90;0.90;;;;;;;-0.68;100.00;96642.00;4749014;30;20422;-80
2023/12/26 10:10:26;;;;;;;0.93;0.93;;;;;;;-0.77;100.00;96625.63;4764996;30;20070;-80
2023/12/26 10:12:56;;;;;;;1.00;1.00;;;;;;;-0.83;100.00;96625.75;4761932;30;20642;-79
2023/12/26 10:15:23;;;;;;;0.90;0.90;;;;;;;-0.79;100.00;96645.44;4763733;30;20075;-78
2023/12/26 10:18:01;;;;;;;0.90;0.90;;;;;;;-0.77;100.00;96646.00;4762047;30;20059;-79
2023/12/26 10:20:34;;;;;;;1.10;1.10;;;;;;;-0.83;100.00;96625.75;4762790;30;20051;-80
2023/12/26 10:23:05;;;;;;;1.10;1.10;;;;;;;-0.77;100.00;96661.91;4765678;30;20136;-79
2023/12/26 10:25:33;;;;;;;1.10;1.10;;;;;;;-0.80;100.00;96660.53;4762344;30;20051;-79
2023/12/26 10:28:01;;;;;;;1.00;1.00;;;;;;;-0.79;100.00;96656.03;4760900;30;20138;-78
2023/12/26 10:30:28;;;;;;;1.00;1.00;;;;;;;-0.79;100.00;96671.91;4763663;30;20055;-78
2023/12/26 10:33:03;;;;;;;0.90;0.90;;;;;;;-0.82;100.00;96675.84;4764086;30;20048;-78
2023/12/26 10:35:33;;;;;;;1.00;1.00;;;;;;;-0.78;100.00;96687.59;4760732;30;20067;-78
2023/12/26 10:38:02;;;;;;;1.05;1.05;;;;;;;-0.78;100.00;96711.44;4776736;30;20047;-79
2023/12/26 10:40:31;;;;;;;1.00;1.00;;;;;;;-0.81;100.00;96703.94;4746905;30;20147;-79
2023/12/26 10:42:59;;;;;;;0.93;0.93;;;;;;;-0.84;100.00;96700.94;4434452;29;10000500;-79
2023/12/26 10:45:29;;;;;;;1.00;1.00;;;;;;;-0.93;100.00;96703.91;4748958;30;20731;-79
2023/12/26 10:47:57;;;;;;;1.10;1.10;;;;;;;-0.99;100.00;96702.16;4763174;30;20083;-79
2023/12/26 10:50:28;;;;;;;1.10;1.10;;;;;;;-1.06;100.00;96725.31;4761890;30;20055;-79
2023/12/26 10:53:15;;;;;;;1.10;1.10;;;;;;;-1.10;100.00;96710.88;4761352;30;20074;-79
2023/12/26 10:55:46;;;;;;;1.00;1.00;;;;;;;-1.19;100.00;96707.78;4762073;30;20672;-79
2023/12/26 10:58:28;;;;;;;0.70;0.70;;;;;;;-1.22;100.00;96718.00;4761640;30;20060;-79
2023/12/26 13:51:58;;;;;;;0.93;0.93;;;;;;;-2.34;91.03;97085.53;4762972;30;20079;-79
2023/12/26 13:55:06;;;;;;;1.00;1.00;;;;;;;-2.42;89.59;97092.69;4759052;30;20694;-80
2023/12/26 13:57:33;;;;;;;1.10;1.10;;;;;;;-2.45;88.60;97102.88;4760843;30;20059;-80
2023/12/26 14:00:38;;;;;;;1.30;1.20;;;;;;;-2.44;88.47;97096.56;4764469;30;20062;-80
2023/12/26 14:03:07;;;;;;;1.00;1.00;;;;;;;-2.49;87.59;97096.34;4764838;30;20206;-78
2023/12/26 14:05:35;;;;;;;1.27;1.20;;;;;;;-2.52;86.90;97099.44;4762328;30;20106;-79
2023/12/26 14:08:43;;;;;;;0.90;0.90;;;;;;;-2.52;87.04;97110.78;4760867;30;20091;-80
2023/12/26 14:11:10;;;;;;;1.10;1.10;;;;;;;-2.53;85.40;97119.75;4747080;30;20181;-79
2023/12/26 14:14:15;;;;;;;1.10;1.10;;;;;;;-2.56;84.02;97124.63;4754198;30;20735;-79
2023/12/26 14:17:09;;;;;;;1.30;1.20;;;;;;;-2.59;83.33;97130.31;4744941;30;20048;-82
2023/12/26 14:20:17;;;;;;;1.05;1.05;;;;;;;-2.64;82.28;97137.03;4759629;30;20117;-78
2023/12/26 14:22:44;;;;;;;1.10;1.10;;;;;;;-2.67;81.04;97129.50;4763004;30;20086;-80
2023/12/26 14:25:49;;;;;;;1.13;1.13;;;;;;;-2.70;80.32;97144.97;4765932;30;20488;-81